sensor_id;sensor_type;location;lat;lon;timestamp;P1;durP1;ratioP1;P2;durP2;ratioP2
61477;SDS011;47345;52.334;10.392;2022-09-11T00:02:27;3.30;;;3.00;;
61477;SDS011;47345;52.334;10.392;2022-09-11T00:04:57;8.90;;;3.20;;
61477;SDS011;47345;52.334;10.392;2022-09-11T00:07:27;4.30;;;3.50;;
61477;SDS011;47345;52.334;10.392;2022-09-11T00:09:57;4.90;;;3.30;;
61477;SDS011;47345;52.334;10.392;2022-09-11T00:12:27;3.80;;;3.20;;
61477;SDS011;47345;52.334;10.392;2022-09-11T00:14:57;3.70;;;3.30;;
61477;SDS011;47345;52.334;10.392;2022-09-11T00:17:28;4.90;;;3.10;;
61477;SDS011;47345;52.334;10.392;2022-09-11T00:19:58;4.50;;;3.50;;
61477;SDS011;47345;52.334;10.392;2022-09-11T00:22:29;3.60;;;3.20;;
61477;SDS011;47345;52.334;10.392;2022-09-11T00:24:59;3.20;;;2.80;;
61477;SDS011;47345;52.334;10.392;2022-09-11T00:27:29;3.90;;;3.40;;
61477;SDS011;47345;52.334;10.392;2022-09-11T00:29:59;4.00;;;3.30;;
61477;SDS011;47345;52.334;10.392;2022-09-11T00:32:30;4.20;;;3.50;;
61477;SDS011;47345;52.334;10.392;2022-09-11T00:35:00;4.20;;;3.50;;
61477;SDS011;47345;52.334;10.392;2022-09-11T00:37:31;5.00;;;3.30;;
61477;SDS011;47345;52.334;10.392;2022-09-11T00:40:01;4.80;;;4.00;;
61477;SDS011;47345;52.334;10.392;2022-09-11T00:42:33;5.40;;;4.30;;
61477;SDS011;47345;52.334;10.392;2022-09-11T00:45:04;5.10;;;4.20;;
61477;SDS011;47345;52.334;10.392;2022-09-11T00:47:44;4.30;;;3.70;;
61477;SDS011;47345;52.334;10.392;2022-09-11T00:50:16;5.90;;;3.90;;
61477;SDS011;47345;52.334;10.392;2022-09-11T00:52:52;6.30;;;4.30;;
61477;SDS011;47345;52.334;10.392;2022-09-11T00:55:26;4.80;;;3.70;;
61477;SDS011;47345;52.334;10.392;2022-09-11T00:58:02;4.90;;;3.90;;
61477;SDS011;47345;52.334;10.392;2022-09-11T01:00:35;4.50;;;3.60;;
61477;SDS011;47345;52.334;10.392;2022-09-11T01:03:07;4.40;;;3.90;;
61477;SDS011;47345;52.334;10.392;2022-09-11T01:05:37;4.00;;;3.40;;
61477;SDS011;47345;52.334;10.392;2022-09-11T01:08:10;6.40;;;4.70;;
61477;SDS011;47345;52.334;10.392;2022-09-11T01:10:44;6.10;;;4.20;;
61477;SDS011;47345;52.334;10.392;2022-09-11T01:13:27;6.00;;;4.10;;
61477;SDS011;47345;52.334;10.392;2022-09-11T01:16:08;6.30;;;4.80;;
61477;SDS011;47345;52.334;10.392;2022-09-11T01:18:48;4.70;;;4.00;;
61477;SDS011;47345;52.334;10.392;2022-09-11T01:21:31;6.30;;;5.20;;
61477;SDS011;47345;52.334;10.392;2022-09-11T01:24:22;7.50;;;5.00;;
61477;SDS011;47345;52.334;10.392;2022-09-11T01:30:05;6.00;;;4.40;;
61477;SDS011;47345;52.334;10.392;2022-09-11T01:32:42;6.70;;;4.70;;
61477;SDS011;47345;52.334;10.392;2022-09-11T01:35:31;4.30;;;3.60;;
61477;SDS011;47345;52.334;10.392;2022-09-11T01:38:11;10.70;;;5.00;;
61477;SDS011;47345;52.334;10.392;2022-09-11T01:40:48;5.50;;;4.50;;
61477;SDS011;47345;52.334;10.392;2022-09-11T01:43:23;5.70;;;4.50;;
61477;SDS011;47345;52.334;10.392;2022-09-11T01:45:57;7.10;;;5.30;;
61477;SDS011;47345;52.334;10.392;2022-09-11T01:48:30;6.40;;;5.00;;
61477;SDS011;47345;52.334;10.392;2022-09-11T01:51:05;8.00;;;4.90;;
61477;SDS011;47345;52.334;10.392;2022-09-11T01:53:42;5.90;;;4.70;;
61477;SDS011;47345;52.334;10.392;2022-09-11T01:56:19;7.20;;;4.80;;
61477;SDS011;47345;52.334;10.392;2022-09-11T01:58:54;7.80;;;4.80;;
61477;SDS011;47345;52.334;10.392;2022-09-11T02:01:29;7.10;;;4.40;;
61477;SDS011;47345;52.334;10.392;2022-09-11T02:04:02;5.70;;;4.40;;
61477;SDS011;47345;52.334;10.392;2022-09-11T02:06:38;6.00;;;5.10;;
61477;SDS011;47345;52.334;10.392;2022-09-11T02:09:14;7.20;;;5.30;;
61477;SDS011;47345;52.334;10.392;2022-09-11T02:11:48;7.30;;;5.10;;
61477;SDS011;47345;52.334;10.392;2022-09-11T02:14:24;7.80;;;5.40;;
61477;SDS011;47345;52.334;10.392;2022-09-11T02:16:59;6.20;;;4.90;;
61477;SDS011;47345;52.334;10.392;2022-09-11T02:19:35;6.80;;;4.90;;
61477;SDS011;47345;52.334;10.392;2022-09-11T02:22:06;12.60;;;4.50;;
61477;SDS011;47345;52.334;10.392;2022-09-11T02:24:36;12.90;;;5.70;;
61477;SDS011;47345;52.334;10.392;2022-09-11T02:27:08;8.10;;;4.80;;
61477;SDS011;47345;52.334;10.392;2022-09-11T02:29:40;8.50;;;5.80;;
61477;SDS011;47345;52.334;10.392;2022-09-11T02:32:10;8.90;;;4.90;;
61477;SDS011;47345;52.334;10.392;2022-09-11T02:34:41;8.00;;;5.20;;
61477;SDS011;47345;52.334;10.392;2022-09-11T02:37:14;11.00;;;6.30;;
61477;SDS011;47345;52.334;10.392;2022-09-11T02:43:21;7.00;;;5.20;;
61477;SDS011;47345;52.334;10.392;2022-09-11T02:49:07;6.30;;;5.20;;
61477;SDS011;47345;52.334;10.392;2022-09-11T02:51:49;8.30;;;6.00;;
61477;SDS011;47345;52.334;10.392;2022-09-11T02:54:31;7.20;;;4.90;;
61477;SDS011;47345;52.334;10.392;2022-09-11T02:57:11;7.30;;;5.20;;
61477;SDS011;47345;52.334;10.392;2022-09-11T02:59:47;6.80;;;5.10;;
61477;SDS011;47345;52.334;10.392;2022-09-11T03:02:21;6.60;;;4.40;;
61477;SDS011;47345;52.334;10.392;2022-09-11T03:04:54;6.50;;;4.50;;
61477;SDS011;47345;52.334;10.392;2022-09-11T03:07:24;6.50;;;4.90;;
61477;SDS011;47345;52.334;10.392;2022-09-11T03:09:55;8.70;;;5.80;;
61477;SDS011;47345;52.334;10.392;2022-09-11T03:12:25;8.10;;;5.00;;
61477;SDS011;47345;52.334;10.392;2022-09-11T03:14:55;8.10;;;6.10;;
61477;SDS011;47345;52.334;10.392;2022-09-11T03:17:25;7.60;;;5.30;;
61477;SDS011;47345;52.334;10.392;2022-09-11T03:19:56;8.70;;;5.20;;
61477;SDS011;47345;52.334;10.392;2022-09-11T03:22:26;5.90;;;4.40;;
61477;SDS011;47345;52.334;10.392;2022-09-11T03:24:56;8.10;;;5.50;;
61477;SDS011;47345;52.334;10.392;2022-09-11T03:27:26;7.50;;;5.20;;
61477;SDS011;47345;52.334;10.392;2022-09-11T03:29:56;6.80;;;4.90;;
61477;SDS011;47345;52.334;10.392;2022-09-11T03:32:27;6.80;;;4.70;;
61477;SDS011;47345;52.334;10.392;2022-09-11T03:34:58;7.20;;;4.60;;
61477;SDS011;47345;52.334;10.392;2022-09-11T03:37:29;6.80;;;4.30;;
61477;SDS011;47345;52.334;10.392;2022-09-11T03:39:59;5.90;;;4.00;;
61477;SDS011;47345;52.334;10.392;2022-09-11T03:42:30;6.50;;;4.60;;
61477;SDS011;47345;52.334;10.392;2022-09-11T03:45:00;5.60;;;4.10;;
61477;SDS011;47345;52.334;10.392;2022-09-11T03:47:30;7.80;;;5.10;;
61477;SDS011;47345;52.334;10.392;2022-09-11T03:50:00;7.40;;;5.00;;
61477;SDS011;47345;52.334;10.392;2022-09-11T03:52:31;6.60;;;5.00;;
61477;SDS011;47345;52.334;10.392;2022-09-11T03:55:02;7.50;;;4.20;;
61477;SDS011;47345;52.334;10.392;2022-09-11T03:57:34;5.00;;;3.50;;
61477;SDS011;47345;52.334;10.392;2022-09-11T04:00:06;7.40;;;4.80;;
61477;SDS011;47345;52.334;10.392;2022-09-11T04:02:38;9.90;;;5.50;;
61477;SDS011;47345;52.334;10.392;2022-09-11T04:05:09;7.40;;;5.00;;
61477;SDS011;47345;52.334;10.392;2022-09-11T04:07:39;9.50;;;5.80;;
61477;SDS011;47345;52.334;10.392;2022-09-11T04:10:09;8.00;;;4.30;;
61477;SDS011;47345;52.334;10.392;2022-09-11T04:12:40;7.50;;;4.60;;
61477;SDS011;47345;52.334;10.392;2022-09-11T04:15:10;7.50;;;4.50;;
61477;SDS011;47345;52.334;10.392;2022-09-11T04:17:41;7.40;;;4.80;;
61477;SDS011;47345;52.334;10.392;2022-09-11T04:20:12;10.10;;;5.50;;
61477;SDS011;47345;52.334;10.392;2022-09-11T04:22:42;8.00;;;5.00;;
61477;SDS011;47345;52.334;10.392;2022-09-11T04:25:13;8.80;;;5.00;;
61477;SDS011;47345;52.334;10.392;2022-09-11T04:27:43;7.10;;;4.20;;
61477;SDS011;47345;52.334;10.392;2022-09-11T04:30:14;7.50;;;3.60;;
61477;SDS011;47345;52.334;10.392;2022-09-11T04:32:44;9.70;;;4.50;;
61477;SDS011;47345;52.334;10.392;2022-09-11T04:35:14;8.60;;;4.80;;
61477;SDS011;47345;52.334;10.392;2022-09-11T04:37:45;8.60;;;4.50;;
61477;SDS011;47345;52.334;10.392;2022-09-11T04:40:15;13.40;;;7.20;;
61477;SDS011;47345;52.334;10.392;2022-09-11T04:42:46;8.80;;;4.50;;
61477;SDS011;47345;52.334;10.392;2022-09-11T04:45:16;12.20;;;6.30;;
61477;SDS011;47345;52.334;10.392;2022-09-11T04:47:46;11.90;;;5.20;;
61477;SDS011;47345;52.334;10.392;2022-09-11T04:50:19;11.60;;;5.30;;
61477;SDS011;47345;52.334;10.392;2022-09-11T04:52:50;13.20;;;6.90;;
61477;SDS011;47345;52.334;10.392;2022-09-11T04:55:21;14.10;;;6.30;;
61477;SDS011;47345;52.334;10.392;2022-09-11T04:57:51;10.90;;;5.30;;
61477;SDS011;47345;52.334;10.392;2022-09-11T05:00:21;12.20;;;6.00;;
61477;SDS011;47345;52.334;10.392;2022-09-11T05:02:51;13.00;;;5.90;;
61477;SDS011;47345;52.334;10.392;2022-09-11T05:05:22;16.10;;;7.00;;
61477;SDS011;47345;52.334;10.392;2022-09-11T05:07:52;12.10;;;5.50;;
61477;SDS011;47345;52.334;10.392;2022-09-11T05:10:22;15.60;;;7.10;;
61477;SDS011;47345;52.334;10.392;2022-09-11T05:12:53;23.60;;;8.00;;
61477;SDS011;47345;52.334;10.392;2022-09-11T05:15:23;11.10;;;5.30;;
61477;SDS011;47345;52.334;10.392;2022-09-11T05:17:54;15.20;;;7.00;;
61477;SDS011;47345;52.334;10.392;2022-09-11T05:20:24;18.60;;;7.60;;
61477;SDS011;47345;52.334;10.392;2022-09-11T05:22:54;19.20;;;8.40;;
61477;SDS011;47345;52.334;10.392;2022-09-11T05:25:24;18.70;;;8.50;;
61477;SDS011;47345;52.334;10.392;2022-09-11T05:27:56;18.40;;;7.80;;
61477;SDS011;47345;52.334;10.392;2022-09-11T05:30:26;13.20;;;5.90;;
61477;SDS011;47345;52.334;10.392;2022-09-11T05:32:58;16.80;;;7.50;;
61477;SDS011;47345;52.334;10.392;2022-09-11T05:35:28;17.00;;;6.80;;
61477;SDS011;47345;52.334;10.392;2022-09-11T05:37:59;17.70;;;7.00;;
61477;SDS011;47345;52.334;10.392;2022-09-11T05:40:29;14.40;;;7.40;;
61477;SDS011;47345;52.334;10.392;2022-09-11T05:43:00;14.10;;;6.40;;
61477;SDS011;47345;52.334;10.392;2022-09-11T05:45:30;18.80;;;8.00;;
61477;SDS011;47345;52.334;10.392;2022-09-11T05:48:01;14.00;;;6.10;;
61477;SDS011;47345;52.334;10.392;2022-09-11T05:50:31;17.10;;;6.90;;
61477;SDS011;47345;52.334;10.392;2022-09-11T05:53:02;17.10;;;7.90;;
61477;SDS011;47345;52.334;10.392;2022-09-11T05:55:33;12.10;;;6.10;;
61477;SDS011;47345;52.334;10.392;2022-09-11T05:58:03;13.50;;;6.10;;
61477;SDS011;47345;52.334;10.392;2022-09-11T06:00:34;17.30;;;7.00;;
61477;SDS011;47345;52.334;10.392;2022-09-11T06:03:04;15.60;;;6.50;;
61477;SDS011;47345;52.334;10.392;2022-09-11T06:05:40;17.30;;;7.20;;
61477;SDS011;47345;52.334;10.392;2022-09-11T06:08:10;16.50;;;6.40;;
61477;SDS011;47345;52.334;10.392;2022-09-11T06:10:44;17.00;;;7.80;;
61477;SDS011;47345;52.334;10.392;2022-09-11T06:13:14;12.00;;;6.00;;
61477;SDS011;47345;52.334;10.392;2022-09-11T06:15:45;18.60;;;7.40;;
61477;SDS011;47345;52.334;10.392;2022-09-11T06:18:16;19.80;;;8.00;;
61477;SDS011;47345;52.334;10.392;2022-09-11T06:20:54;12.10;;;5.90;;
61477;SDS011;47345;52.334;10.392;2022-09-11T06:23:26;16.40;;;7.00;;
61477;SDS011;47345;52.334;10.392;2022-09-11T06:26:02;15.90;;;6.30;;
61477;SDS011;47345;52.334;10.392;2022-09-11T06:28:35;14.50;;;6.60;;
61477;SDS011;47345;52.334;10.392;2022-09-11T06:31:08;13.80;;;6.30;;
61477;SDS011;47345;52.334;10.392;2022-09-11T06:33:39;15.50;;;6.80;;
61477;SDS011;47345;52.334;10.392;2022-09-11T06:36:12;14.00;;;6.80;;
61477;SDS011;47345;52.334;10.392;2022-09-11T06:38:44;17.30;;;8.30;;
61477;SDS011;47345;52.334;10.392;2022-09-11T06:41:14;19.60;;;8.10;;
61477;SDS011;47345;52.334;10.392;2022-09-11T06:43:45;10.70;;;5.00;;
61477;SDS011;47345;52.334;10.392;2022-09-11T06:46:17;21.20;;;7.70;;
61477;SDS011;47345;52.334;10.392;2022-09-11T06:48:49;17.30;;;7.20;;
61477;SDS011;47345;52.334;10.392;2022-09-11T06:51:20;17.50;;;7.40;;
61477;SDS011;47345;52.334;10.392;2022-09-11T06:53:53;26.10;;;9.60;;
61477;SDS011;47345;52.334;10.392;2022-09-11T06:56:24;19.10;;;8.40;;
61477;SDS011;47345;52.334;10.392;2022-09-11T06:58:55;15.60;;;6.90;;
61477;SDS011;47345;52.334;10.392;2022-09-11T07:01:25;18.50;;;7.70;;
61477;SDS011;47345;52.334;10.392;2022-09-11T07:03:56;17.30;;;8.00;;
61477;SDS011;47345;52.334;10.392;2022-09-11T07:06:29;20.80;;;8.30;;
61477;SDS011;47345;52.334;10.392;2022-09-11T07:08:59;16.70;;;8.30;;
61477;SDS011;47345;52.334;10.392;2022-09-11T07:11:31;18.50;;;8.30;;
61477;SDS011;47345;52.334;10.392;2022-09-11T07:14:03;18.60;;;8.40;;
61477;SDS011;47345;52.334;10.392;2022-09-11T07:16:33;25.60;;;9.40;;
61477;SDS011;47345;52.334;10.392;2022-09-11T07:19:04;17.70;;;7.90;;
61477;SDS011;47345;52.334;10.392;2022-09-11T07:21:36;15.00;;;6.10;;
61477;SDS011;47345;52.334;10.392;2022-09-11T07:24:08;9.80;;;4.80;;
61477;SDS011;47345;52.334;10.392;2022-09-11T07:26:38;15.20;;;7.00;;
61477;SDS011;47345;52.334;10.392;2022-09-11T07:29:09;19.70;;;8.70;;
61477;SDS011;47345;52.334;10.392;2022-09-11T07:31:40;21.50;;;9.70;;
61477;SDS011;47345;52.334;10.392;2022-09-11T07:34:10;15.20;;;6.80;;
61477;SDS011;47345;52.334;10.392;2022-09-11T07:36:40;26.50;;;10.50;;
61477;SDS011;47345;52.334;10.392;2022-09-11T07:39:11;19.40;;;8.10;;
61477;SDS011;47345;52.334;10.392;2022-09-11T07:41:41;16.90;;;9.00;;
61477;SDS011;47345;52.334;10.392;2022-09-11T07:44:11;17.60;;;9.10;;
61477;SDS011;47345;52.334;10.392;2022-09-11T07:46:42;21.60;;;9.90;;
61477;SDS011;47345;52.334;10.392;2022-09-11T07:49:12;24.10;;;10.50;;
61477;SDS011;47345;52.334;10.392;2022-09-11T07:51:44;18.80;;;8.40;;
61477;SDS011;47345;52.334;10.392;2022-09-11T07:54:15;18.30;;;9.50;;
61477;SDS011;47345;52.334;10.392;2022-09-11T07:56:45;18.60;;;8.30;;
61477;SDS011;47345;52.334;10.392;2022-09-11T07:59:15;18.60;;;8.70;;
61477;SDS011;47345;52.334;10.392;2022-09-11T08:01:46;20.50;;;9.40;;
61477;SDS011;47345;52.334;10.392;2022-09-11T08:04:17;20.10;;;10.40;;
61477;SDS011;47345;52.334;10.392;2022-09-11T08:06:47;23.00;;;10.80;;
61477;SDS011;47345;52.334;10.392;2022-09-11T08:09:18;18.30;;;10.10;;
61477;SDS011;47345;52.334;10.392;2022-09-11T08:11:48;24.70;;;11.10;;
61477;SDS011;47345;52.334;10.392;2022-09-11T08:14:22;23.70;;;11.30;;
61477;SDS011;47345;52.334;10.392;2022-09-11T08:16:53;17.90;;;9.60;;
61477;SDS011;47345;52.334;10.392;2022-09-11T08:19:23;22.70;;;9.80;;
61477;SDS011;47345;52.334;10.392;2022-09-11T08:21:54;21.50;;;11.30;;
61477;SDS011;47345;52.334;10.392;2022-09-11T08:24:24;23.60;;;11.30;;
61477;SDS011;47345;52.334;10.392;2022-09-11T08:26:54;19.10;;;8.80;;
61477;SDS011;47345;52.334;10.392;2022-09-11T08:29:24;18.20;;;7.90;;
61477;SDS011;47345;52.334;10.392;2022-09-11T08:31:55;25.30;;;11.50;;
61477;SDS011;47345;52.334;10.392;2022-09-11T08:34:29;16.30;;;8.60;;
61477;SDS011;47345;52.334;10.392;2022-09-11T08:36:59;20.50;;;10.30;;
61477;SDS011;47345;52.334;10.392;2022-09-11T08:39:29;20.90;;;10.80;;
61477;SDS011;47345;52.334;10.392;2022-09-11T08:42:01;20.60;;;10.60;;
61477;SDS011;47345;52.334;10.392;2022-09-11T08:44:37;22.10;;;11.30;;
61477;SDS011;47345;52.334;10.392;2022-09-11T08:47:15;18.50;;;9.70;;
61477;SDS011;47345;52.334;10.392;2022-09-11T08:49:52;19.40;;;9.80;;
61477;SDS011;47345;52.334;10.392;2022-09-11T08:52:25;17.30;;;9.80;;
61477;SDS011;47345;52.334;10.392;2022-09-11T08:54:57;15.80;;;9.00;;
61477;SDS011;47345;52.334;10.392;2022-09-11T08:57:30;15.70;;;8.00;;
61477;SDS011;47345;52.334;10.392;2022-09-11T09:00:12;14.00;;;7.90;;
61477;SDS011;47345;52.334;10.392;2022-09-11T09:05:46;15.20;;;7.70;;
61477;SDS011;47345;52.334;10.392;2022-09-11T09:08:36;18.00;;;8.60;;
61477;SDS011;47345;52.334;10.392;2022-09-11T09:11:17;17.50;;;9.10;;
61477;SDS011;47345;52.334;10.392;2022-09-11T09:14:02;16.50;;;9.40;;
61477;SDS011;47345;52.334;10.392;2022-09-11T09:16:45;12.70;;;7.90;;
61477;SDS011;47345;52.334;10.392;2022-09-11T09:21:57;11.20;;;6.30;;
61477;SDS011;47345;52.334;10.392;2022-09-11T09:24:38;9.90;;;6.40;;
61477;SDS011;47345;52.334;10.392;2022-09-11T09:27:16;12.80;;;7.20;;
61477;SDS011;47345;52.334;10.392;2022-09-11T09:29:51;12.70;;;6.70;;
61477;SDS011;47345;52.334;10.392;2022-09-11T09:32:24;13.50;;;6.90;;
61477;SDS011;47345;52.334;10.392;2022-09-11T09:35:01;12.50;;;7.80;;
61477;SDS011;47345;52.334;10.392;2022-09-11T09:37:38;12.80;;;8.00;;
61477;SDS011;47345;52.334;10.392;2022-09-11T09:40:09;13.10;;;7.70;;
61477;SDS011;47345;52.334;10.392;2022-09-11T09:45:46;9.70;;;6.20;;
61477;SDS011;47345;52.334;10.392;2022-09-11T09:48:33;11.30;;;7.00;;
61477;SDS011;47345;52.334;10.392;2022-09-11T09:53:42;13.40;;;8.20;;
61477;SDS011;47345;52.334;10.392;2022-09-11T09:56:16;15.00;;;8.30;;
61477;SDS011;47345;52.334;10.392;2022-09-11T09:58:51;10.70;;;6.70;;
61477;SDS011;47345;52.334;10.392;2022-09-11T10:01:43;12.10;;;7.60;;
61477;SDS011;47345;52.334;10.392;2022-09-11T10:04:17;13.60;;;8.30;;
61477;SDS011;47345;52.334;10.392;2022-09-11T10:06:50;14.70;;;6.40;;
61477;SDS011;47345;52.334;10.392;2022-09-11T10:09:23;11.60;;;7.00;;
61477;SDS011;47345;52.334;10.392;2022-09-11T10:11:57;8.90;;;5.00;;
61477;SDS011;47345;52.334;10.392;2022-09-11T10:14:30;10.30;;;6.20;;
61477;SDS011;47345;52.334;10.392;2022-09-11T10:17:22;11.30;;;6.80;;
61477;SDS011;47345;52.334;10.392;2022-09-11T10:20:12;14.10;;;6.70;;
61477;SDS011;47345;52.334;10.392;2022-09-11T10:22:53;10.80;;;6.30;;
61477;SDS011;47345;52.334;10.392;2022-09-11T10:25:24;9.60;;;6.10;;
61477;SDS011;47345;52.334;10.392;2022-09-11T10:27:59;10.50;;;6.50;;
61477;SDS011;47345;52.334;10.392;2022-09-11T10:30:36;9.20;;;6.30;;
61477;SDS011;47345;52.334;10.392;2022-09-11T10:33:14;10.60;;;6.00;;
61477;SDS011;47345;52.334;10.392;2022-09-11T10:35:50;5.80;;;4.20;;
61477;SDS011;47345;52.334;10.392;2022-09-11T10:38:23;9.50;;;6.20;;
61477;SDS011;47345;52.334;10.392;2022-09-11T10:41:03;11.10;;;6.50;;
61477;SDS011;47345;52.334;10.392;2022-09-11T10:43:42;11.30;;;6.60;;
61477;SDS011;47345;52.334;10.392;2022-09-11T10:46:25;8.70;;;5.40;;
61477;SDS011;47345;52.334;10.392;2022-09-11T10:49:14;11.00;;;6.30;;
61477;SDS011;47345;52.334;10.392;2022-09-11T10:51:59;13.70;;;6.10;;
61477;SDS011;47345;52.334;10.392;2022-09-11T10:54:45;9.80;;;5.80;;
61477;SDS011;47345;52.334;10.392;2022-09-11T10:57:22;10.20;;;5.70;;
61477;SDS011;47345;52.334;10.392;2022-09-11T11:00:01;7.80;;;5.10;;
61477;SDS011;47345;52.334;10.392;2022-09-11T11:02:36;11.60;;;6.60;;
61477;SDS011;47345;52.334;10.392;2022-09-11T11:05:12;8.40;;;5.50;;
61477;SDS011;47345;52.334;10.392;2022-09-11T11:07:57;12.30;;;5.20;;
61477;SDS011;47345;52.334;10.392;2022-09-11T11:13:23;7.10;;;4.50;;
61477;SDS011;47345;52.334;10.392;2022-09-11T11:16:09;9.30;;;5.40;;
61477;SDS011;47345;52.334;10.392;2022-09-11T11:18:55;10.30;;;5.10;;
61477;SDS011;47345;52.334;10.392;2022-09-11T11:21:45;9.30;;;5.50;;
61477;SDS011;47345;52.334;10.392;2022-09-11T11:24:40;9.10;;;5.30;;
61477;SDS011;47345;52.334;10.392;2022-09-11T11:27:25;9.80;;;4.70;;
61477;SDS011;47345;52.334;10.392;2022-09-11T11:30:11;7.80;;;5.70;;
61477;SDS011;47345;52.334;10.392;2022-09-11T11:33:04;8.80;;;5.30;;
61477;SDS011;47345;52.334;10.392;2022-09-11T11:35:50;8.40;;;5.50;;
61477;SDS011;47345;52.334;10.392;2022-09-11T11:38:29;8.00;;;5.10;;
61477;SDS011;47345;52.334;10.392;2022-09-11T11:41:08;8.90;;;5.50;;
61477;SDS011;47345;52.334;10.392;2022-09-11T11:43:43;10.40;;;5.50;;
61477;SDS011;47345;52.334;10.392;2022-09-11T11:46:17;9.60;;;5.70;;
61477;SDS011;47345;52.334;10.392;2022-09-11T11:48:52;9.30;;;5.30;;
61477;SDS011;47345;52.334;10.392;2022-09-11T11:51:28;6.10;;;4.30;;
61477;SDS011;47345;52.334;10.392;2022-09-11T11:54:07;9.80;;;5.60;;
61477;SDS011;47345;52.334;10.392;2022-09-11T11:56:46;11.30;;;4.80;;
61477;SDS011;47345;52.334;10.392;2022-09-11T11:59:19;8.30;;;4.80;;
61477;SDS011;47345;52.334;10.392;2022-09-11T12:01:59;9.40;;;5.20;;
61477;SDS011;47345;52.334;10.392;2022-09-11T12:04:40;9.20;;;5.10;;
61477;SDS011;47345;52.334;10.392;2022-09-11T12:07:16;8.10;;;5.30;;
61477;SDS011;47345;52.334;10.392;2022-09-11T12:09:50;8.10;;;4.60;;
61477;SDS011;47345;52.334;10.392;2022-09-11T12:12:22;7.70;;;4.70;;
61477;SDS011;47345;52.334;10.392;2022-09-11T12:14:55;8.60;;;5.00;;
61477;SDS011;47345;52.334;10.392;2022-09-11T12:17:32;5.70;;;4.20;;
61477;SDS011;47345;52.334;10.392;2022-09-11T12:20:26;4.20;;;2.90;;
61477;SDS011;47345;52.334;10.392;2022-09-11T12:22:59;4.30;;;3.00;;
61477;SDS011;47345;52.334;10.392;2022-09-11T12:28:21;5.30;;;3.40;;
61477;SDS011;47345;52.334;10.392;2022-09-11T12:30:54;4.90;;;3.30;;
61477;SDS011;47345;52.334;10.392;2022-09-11T12:36:23;5.00;;;4.00;;
61477;SDS011;47345;52.334;10.392;2022-09-11T12:39:00;4.50;;;3.10;;
61477;SDS011;47345;52.334;10.392;2022-09-11T12:41:41;6.20;;;4.10;;
61477;SDS011;47345;52.334;10.392;2022-09-11T12:47:09;5.80;;;3.60;;
61477;SDS011;47345;52.334;10.392;2022-09-11T12:49:51;5.10;;;3.70;;
61477;SDS011;47345;52.334;10.392;2022-09-11T12:52:26;6.40;;;3.80;;
61477;SDS011;47345;52.334;10.392;2022-09-11T12:57:34;5.90;;;3.90;;
61477;SDS011;47345;52.334;10.392;2022-09-11T13:00:19;5.40;;;3.60;;
61477;SDS011;47345;52.334;10.392;2022-09-11T13:02:53;5.20;;;3.70;;
61477;SDS011;47345;52.334;10.392;2022-09-11T13:05:26;6.00;;;3.90;;
61477;SDS011;47345;52.334;10.392;2022-09-11T13:08:02;5.40;;;4.00;;
61477;SDS011;47345;52.334;10.392;2022-09-11T13:10:36;5.80;;;3.50;;
61477;SDS011;47345;52.334;10.392;2022-09-11T13:13:34;5.60;;;3.80;;
61477;SDS011;47345;52.334;10.392;2022-09-11T13:16:17;5.90;;;4.00;;
61477;SDS011;47345;52.334;10.392;2022-09-11T13:18:51;5.40;;;3.50;;
61477;SDS011;47345;52.334;10.392;2022-09-11T13:21:26;4.60;;;3.20;;
61477;SDS011;47345;52.334;10.392;2022-09-11T13:24:03;6.90;;;3.60;;
61477;SDS011;47345;52.334;10.392;2022-09-11T13:26:51;3.90;;;2.80;;
61477;SDS011;47345;52.334;10.392;2022-09-11T13:29:25;7.20;;;3.60;;
61477;SDS011;47345;52.334;10.392;2022-09-11T13:31:57;5.50;;;3.40;;
61477;SDS011;47345;52.334;10.392;2022-09-11T13:34:34;5.10;;;3.20;;
61477;SDS011;47345;52.334;10.392;2022-09-11T13:37:07;7.80;;;4.10;;
61477;SDS011;47345;52.334;10.392;2022-09-11T13:39:41;5.70;;;3.30;;
61477;SDS011;47345;52.334;10.392;2022-09-11T13:42:14;5.80;;;3.90;;
61477;SDS011;47345;52.334;10.392;2022-09-11T13:44:49;5.60;;;4.00;;
61477;SDS011;47345;52.334;10.392;2022-09-11T13:47:23;5.30;;;3.90;;
61477;SDS011;47345;52.334;10.392;2022-09-11T13:49:56;7.60;;;4.40;;
61477;SDS011;47345;52.334;10.392;2022-09-11T13:52:32;5.80;;;4.20;;
61477;SDS011;47345;52.334;10.392;2022-09-11T13:55:08;6.60;;;4.10;;
61477;SDS011;47345;52.334;10.392;2022-09-11T13:57:53;6.30;;;3.90;;
61477;SDS011;47345;52.334;10.392;2022-09-11T14:00:38;8.70;;;4.30;;
61477;SDS011;47345;52.334;10.392;2022-09-11T14:03:15;6.50;;;4.20;;
61477;SDS011;47345;52.334;10.392;2022-09-11T14:08:26;7.40;;;4.10;;
61477;SDS011;47345;52.334;10.392;2022-09-11T14:11:02;7.70;;;3.80;;
61477;SDS011;47345;52.334;10.392;2022-09-11T14:13:55;7.90;;;3.80;;
61477;SDS011;47345;52.334;10.392;2022-09-11T14:16:34;3.20;;;2.80;;
61477;SDS011;47345;52.334;10.392;2022-09-11T14:19:06;5.40;;;3.00;;
61477;SDS011;47345;52.334;10.392;2022-09-11T14:21:41;3.80;;;2.70;;
61477;SDS011;47345;52.334;10.392;2022-09-11T14:24:23;6.60;;;3.40;;
61477;SDS011;47345;52.334;10.392;2022-09-11T14:26:55;6.30;;;4.10;;
61477;SDS011;47345;52.334;10.392;2022-09-11T14:29:26;4.30;;;3.50;;
61477;SDS011;47345;52.334;10.392;2022-09-11T14:34:57;5.30;;;3.50;;
61477;SDS011;47345;52.334;10.392;2022-09-11T14:37:28;5.90;;;3.70;;
61477;SDS011;47345;52.334;10.392;2022-09-11T14:40:03;5.00;;;3.80;;
61477;SDS011;47345;52.334;10.392;2022-09-11T14:42:41;6.80;;;4.10;;
61477;SDS011;47345;52.334;10.392;2022-09-11T14:45:16;3.90;;;3.40;;
61477;SDS011;47345;52.334;10.392;2022-09-11T14:47:48;3.30;;;2.80;;
61477;SDS011;47345;52.334;10.392;2022-09-11T14:50:19;4.50;;;3.00;;
61477;SDS011;47345;52.334;10.392;2022-09-11T14:52:51;4.50;;;3.20;;
61477;SDS011;47345;52.334;10.392;2022-09-11T14:59:08;3.50;;;2.30;;
61477;SDS011;47345;52.334;10.392;2022-09-11T15:01:40;3.00;;;2.00;;
61477;SDS011;47345;52.334;10.392;2022-09-11T15:04:18;2.80;;;2.30;;
61477;SDS011;47345;52.334;10.392;2022-09-11T15:06:51;3.20;;;2.40;;
61477;SDS011;47345;52.334;10.392;2022-09-11T15:09:22;3.00;;;2.10;;
61477;SDS011;47345;52.334;10.392;2022-09-11T15:11:53;2.30;;;1.90;;
61477;SDS011;47345;52.334;10.392;2022-09-11T15:14:23;2.20;;;2.00;;
61477;SDS011;47345;52.334;10.392;2022-09-11T15:17:14;2.10;;;1.90;;
61477;SDS011;47345;52.334;10.392;2022-09-11T15:19:46;2.60;;;2.10;;
61477;SDS011;47345;52.334;10.392;2022-09-11T15:29:53;2.30;;;1.50;;
61477;SDS011;47345;52.334;10.392;2022-09-11T15:32:23;2.30;;;1.60;;
61477;SDS011;47345;52.334;10.392;2022-09-11T15:34:54;1.70;;;1.50;;
61477;SDS011;47345;52.334;10.392;2022-09-11T15:37:24;1.70;;;1.50;;
61477;SDS011;47345;52.334;10.392;2022-09-11T15:39:55;1.50;;;1.40;;
61477;SDS011;47345;52.334;10.392;2022-09-11T15:42:27;2.20;;;1.70;;
61477;SDS011;47345;52.334;10.392;2022-09-11T15:45:07;1.30;;;1.20;;
61477;SDS011;47345;52.334;10.392;2022-09-11T15:47:39;1.50;;;1.40;;
61477;SDS011;47345;52.334;10.392;2022-09-11T15:50:10;1.50;;;1.40;;
61477;SDS011;47345;52.334;10.392;2022-09-11T15:52:44;1.20;;;1.20;;
61477;SDS011;47345;52.334;10.392;2022-09-11T15:55:15;1.40;;;1.30;;
61477;SDS011;47345;52.334;10.392;2022-09-11T15:57:46;1.80;;;1.40;;
61477;SDS011;47345;52.334;10.392;2022-09-11T16:00:16;3.00;;;1.80;;
61477;SDS011;47345;52.334;10.392;2022-09-11T16:02:48;2.00;;;1.70;;